CW5324 Weather Reports


Display with metric or nautical units.
time (UTC)temp
F
wind
direction
speed
MPH
gust
MPH
rain 1hr
in
rain 24hr
in
rain mn
in
humidity
%
barometer
mb
20210805023022 68 0.0 1.0 0.00 0.00 0.00 86 1022.4
20210805022023 68 0.0 0.0 0.00 0.00 0.00 87 1022.5
20210805021022 68 0.0 0.0 0.00 0.00 0.00 87 1022.6
20210805020022 68 0.0 0.0 0.00 0.00 0.00 86 1022.6
20210805015023 68 0.0 1.0 0.00 0.00 0.00 86 1022.6
20210805014022 68 0.0 0.0 0.00 0.00 0.00 85 1022.6
20210805013017 68 0.0 0.0 0.00 0.00 0.00 84 1022.5
20210805012023 69 0.0 2.0 0.00 0.00 0.00 82 1022.2
20210805011022 69 0.0 0.0 0.00 0.00 0.00 81 1022.1
20210805010022 69 0.0 0.0 0.00 0.00 0.00 80 1022.1
20210805005022 70 0.0 0.0 0.00 0.00 0.00 78 1022.1
20210805004022 70 0.0 0.0 0.00 0.00 0.00 77 1021.9
20210805003017 71 0.0 2.0 0.00 0.00 0.00 75 1021.9
20210805002017 71 0.0 1.0 0.00 0.00 0.00 74 1022.0
20210805001022 72 0.0 0.0 0.00 0.00 0.00 73 1021.9
20210805000022 72 0.0 2.0 0.00 0.00 0.00 72 1021.9
20210804235022 72 0.0 1.0 0.00 0.00 0.00 71 1021.9
20210804234023 73 0.0 0.0 0.00 0.00 0.00 71 1022.0
20210804233022 73 0.0 0.0 0.00 0.00 0.00 71 1022.0
20210804232018 74 0.0 0.0 0.00 0.00 0.00 71 1021.6
20210804231017 74 0.0 0.0 0.00 0.00 0.00 69 1021.8
20210804230022 74 0.0 2.0 0.00 0.00 0.00 67 1021.8
20210804225023 75 157 1.0 4.0 0.00 0.00 0.00 65 1022.1
20210804224022 75 157 3.0 7.0 0.00 0.00 0.00 64 1022.2
20210804223021 75 157 4.0 6.0 0.00 0.00 0.00 62 1022.2
20210804222022 76 0.0 2.0 0.00 0.00 0.00 63 1022.3
20210804221017 76 135 2.0 6.0 0.00 0.00 0.00 61 1022.6
20210804220023 76 135 3.0 6.0 0.00 0.00 0.00 60 1022.6
20210804215022 76 157 2.0 6.0 0.00 0.00 0.00 60 1022.3
20210804214023 76 157 3.0 10.0 0.00 0.00 0.00 57 1022.4
20210804213022 76 157 4.0 8.0 0.00 0.00 0.00 58 1022.4
20210804212022 77 157 2.0 6.0 0.00 0.00 0.00 60 1022.3
20210804211022 77 135 2.0 7.0 0.00 0.00 0.00 57 1022.4
20210804210018 77 157 2.0 5.0 0.00 0.00 0.00 56 1022.4
20210804205023 77 157 2.0 5.0 0.00 0.00 0.00 55 1022.5
20210804204023 77 157 1.0 5.0 0.00 0.00 0.00 56 1022.7
20210804203022 78 157 2.0 5.0 0.00 0.00 0.00 55 1022.7
20210804202022 78 112 1.0 6.0 0.00 0.00 0.00 55 1022.6
20210804201022 78 157 1.0 4.0 0.00 0.00 0.00 53 1022.7
20210804200018 78 135 1.0 5.0 0.00 0.00 0.00 55 1022.7
20210804195017 78 135 1.0 4.0 0.00 0.00 0.00 54 1022.7
20210804194023 78 157 2.0 7.0 0.00 0.00 0.00 53 1022.7
20210804193024 78 157 3.0 7.0 0.00 0.00 0.00 53 1022.7
20210804192022 79 157 2.0 6.0 0.00 0.00 0.00 55 1022.8
20210804191023 79 135 2.0 5.0 0.00 0.00 0.00 54 1022.8
20210804190022 79 135 2.0 4.0 0.00 0.00 0.00 52 1022.8
20210804185017 80 135 2.0 3.0 0.00 0.00 0.00 52 1022.7
20210804184017 81 157 1.0 5.0 0.00 0.00 0.00 55 1022.6
20210804183023 81 0.0 3.0 0.00 0.00 0.00 52 1022.6
20210804182023 81 0.0 3.0 0.00 0.00 0.00 51 1022.9
20210804181023 82 112 1.0 4.0 0.00 0.00 0.00 49 1022.8
20210804180021 82 112 1.0 4.0 0.00 0.00 0.00 46 1022.8
20210804175023 81 0.0 2.0 0.00 0.00 0.00 51 1022.6
20210804174017 81 0.0 3.0 0.00 0.00 0.00 54 1022.7
20210804173022 80 0.0 0.0 0.00 0.00 0.00 58 1022.7
20210804172023 78 0.0 0.0 0.00 0.00 0.00 60 1023.0
20210804171022 77 0.0 0.0 0.00 0.00 0.00 61 1022.8
20210804170023 76 0.0 0.0 0.00 0.00 0.00 64 1022.8
20210804165022 75 0.0 0.0 0.00 0.00 0.00 65 1023.1
20210804164023 75 0.0 0.0 0.00 0.00 0.00 66 1023.3
20210804163018 74 0.0 0.0 0.00 0.00 0.00 68 1023.3
20210804162022 74 0.0 0.0 0.00 0.00 0.00 69 1023.3
20210804161023 73 0.0 0.0 0.00 0.00 0.00 68 1023.3
20210804160023 73 0.0 0.0 0.00 0.00 0.00 70 1023.3
20210804155023 73 0.0 0.0 0.00 0.00 0.00 70 1023.6
20210804154022 72 0.0 0.0 0.00 0.00 0.00 70 1023.6
20210804153018 72 0.0 0.0 0.00 0.00 0.00 70 1023.6
20210804152017 71 0.0 0.0 0.00 0.00 0.00 70 1023.7
20210804151022 71 0.0 0.0 0.00 0.00 0.00 71 1023.7
20210804150022 70 0.0 0.0 0.00 0.00 0.00 71 1023.7
20210804145022 70 0.0 0.0 0.00 0.00 0.00 70 1023.6
20210804144022 70 0.0 0.0 0.00 0.00 0.00 72 1023.7
20210804143022 70 0.0 0.0 0.00 0.00 0.00 74 1023.7
20210804142017 69 0.0 0.0 0.00 0.00 0.00 76 1023.5
20210804141017 68 0.0 0.0 0.00 0.00 0.00 77 1023.4
20210804140023 67 0.0 0.0 0.00 0.00 0.00 79 1023.4
20210804135022 67 0.0 0.0 0.00 0.00 0.00 80 1023.7
20210804134023 66 0.0 0.0 0.00 0.00 0.00 82 1023.7
20210804133021 66 0.0 0.0 0.00 0.00 0.00 85 1023.7
20210804132022 65 0.0 0.0 0.00 0.00 0.00 89 1023.7
20210804131018 64 0.0 0.0 0.00 0.00 0.00 92 1023.6
20210804130022 63 0.0 0.0 0.00 0.00 0.00 93 1023.6
20210804125023 62 0.0 0.0 0.00 0.00 0.00 94 1023.6
20210804124022 62 0.0 0.0 0.00 0.00 0.00 95 1023.4
20210804123023 61 0.0 0.0 0.00 0.00 0.00 96 1023.4
20210804122023 61 0.0 0.0 0.00 0.00 0.00 97 1023.3
20210804121022 60 0.0 0.0 0.00 0.00 0.00 97 1023.1
20210804120018 60 0.0 0.0 0.00 0.00 0.00 97 1023.1
20210804115022 59 0.0 0.0 0.00 0.00 0.00 97 1023.0
20210804114022 59 0.0 0.0 0.00 0.00 0.00 97 1022.6
20210804113022 59 0.0 0.0 0.00 0.00 0.00 97 1022.7
20210804112023 58 0.0 0.0 0.00 0.00 0.00 97 1022.7
20210804111022 58 0.0 0.0 0.00 0.00 0.00 97 1022.6
20210804110022 58 0.0 0.0 0.00 0.00 0.00 97 1022.6
20210804105017 57 0.0 0.0 0.00 0.00 0.00 97 1022.5
20210804104022 57 0.0 0.0 0.00 0.00 0.00 97 1022.4
20210804103022 57 0.0 0.0 0.00 0.00 0.00 97 1022.4
20210804102023 57 0.0 0.0 0.00 0.00 0.00 96 1022.1
20210804101022 57 0.0 0.0 0.00 0.00 0.00 96 1022.0
20210804100023 57 0.0 0.0 0.00 0.00 0.00 96 1022.0
20210804095017 58 0.0 0.0 0.00 0.00 0.00 96 1021.7
20210804094017 58 0.0 0.0 0.00 0.00 0.00 96 1021.8
20210804093022 58 0.0 0.0 0.00 0.01 0.00 96 1021.8
20210804092022 58 0.0 0.0 0.00 0.01 0.00 96 1021.7
20210804091022 58 0.0 0.0 0.00 0.01 0.00 96 1021.6
20210804090023 58 0.0 0.0 0.00 0.01 0.00 95 1021.6
20210804085022 58 0.0 0.0 0.00 0.01 0.00 95 1021.4
20210804084017 58 0.0 0.0 0.00 0.01 0.00 95 1021.2
20210804083017 58 0.0 0.0 0.00 0.01 0.00 95 1021.2
20210804082022 58 0.0 0.0 0.00 0.01 0.00 95 1021.2
20210804081023 58 0.0 0.0 0.00 0.01 0.00 95 1021.0
20210804080022 58 0.0 0.0 0.00 0.01 0.00 94 1021.0
20210804075022 59 0.0 0.0 0.00 0.01 0.00 94 1021.1
20210804074022 59 0.0 0.0 0.00 0.01 0.00 94 1021.2
20210804073018 59 0.0 0.0 0.00 0.01 0.00 94 1021.2
20210804072020 59 0.0 0.0 0.00 0.01 0.00 94 1021.2
20210804071023 59 0.0 0.0 0.00 0.01 0.00 94 1021.0
20210804070023 59 0.0 0.0 0.00 0.01 0.00 93 1021.0
20210804065022 59 0.0 0.0 0.00 0.01 0.00 93 1021.0
20210804064020 59 0.0 0.0 0.00 0.01 0.00 93 1021.0
20210804063023 59 0.0 0.0 0.00 0.01 0.00 93 1021.0
20210804062016 60 0.0 0.0 0.00 0.01 0.00 93 1020.5
20210804061022 60 0.0 0.0 0.00 0.01 0.00 92 1020.6
20210804060023 60 0.0 0.0 0.00 0.01 0.00 92 1020.6
20210804055022 60 0.0 0.0 0.00 0.01 0.00 92 1020.6
20210804054023 60 0.0 0.0 0.00 0.01 0.00 92 1020.8
20210804053022 61 0.0 0.0 0.00 0.01 0.00 91 1020.8
20210804052022 61 0.0 0.0 0.00 0.01 0.00 91 1020.5
20210804051017 61 0.0 0.0 0.00 0.01 0.00 91 1020.5
20210804050022 61 0.0 0.0 0.00 0.01 0.00 90 1020.5
20210804045023 62 0.0 0.0 0.00 0.01 0.00 90 1020.5
20210804044022 62 0.0 0.0 0.00 0.01 0.00 89 1020.5
20210804043022 62 0.0 0.0 0.00 0.01 0.00 89 1020.5
20210804042022 62 0.0 0.0 0.00 0.01 0.00 88 1020.5
20210804041017 62 0.0 0.0 0.00 0.01 0.00 88 1020.5
20210804040017 63 0.0 0.0 0.00 0.01 0.01 87 1020.5
20210804035022 63 0.0 0.0 0.00 0.01 0.01 86 1020.5
20210804034021 63 0.0 0.0 0.00 0.01 0.01 86 1020.5
20210804033019 63 0.0 0.0 0.00 0.01 0.01 85 1020.5
20210804032022 64 0.0 0.0 0.00 0.01 0.01 85 1020.5
20210804031017 64 0.0 0.0 0.00 0.01 0.01 84 1020.6
20210804030021 64 0.0 0.0 0.00 0.01 0.01 83 1020.6
20210804025021 65 0.0 0.0 0.00 0.01 0.01 82 1020.5
20210804024022 65 0.0 0.0 0.00 0.01 0.01 82 1020.5